createdAt,value
2023-04-23T00:00:11.006Z,0
2023-04-23T00:01:27.349Z,0
2023-04-23T00:02:43.642Z,0
2023-04-23T00:03:58.950Z,0
2023-04-23T00:05:15.200Z,0
2023-04-23T00:06:31.543Z,0
2023-04-23T00:07:47.777Z,0
2023-04-23T00:09:04.070Z,0
2023-04-23T00:10:22.000Z,0
2023-04-23T00:11:36.661Z,0
2023-04-23T00:12:52.949Z,0
2023-04-23T00:14:09.242Z,0
2023-04-23T00:15:25.532Z,0
2023-04-23T00:16:41.883Z,0
2023-04-23T00:17:58.176Z,0
2023-04-23T00:19:14.000Z,0
2023-04-23T00:20:29.773Z,0
2023-04-23T00:21:46.021Z,0
2023-04-23T00:23:02.354Z,0
2023-04-23T00:24:18.000Z,0
2023-04-23T00:25:34.894Z,0
2023-04-23T00:26:51.180Z,0
2023-04-23T00:28:08.000Z,0
2023-04-23T00:29:22.792Z,0
2023-04-23T00:30:39.088Z,0
2023-04-23T00:31:55.436Z,0
2023-04-23T00:33:11.677Z,0
2023-04-23T00:34:27.000Z,0
2023-04-23T00:35:44.302Z,0
2023-04-23T00:37:00.600Z,0
2023-04-23T00:38:16.888Z,0
2023-04-23T00:39:33.195Z,0
2023-04-23T00:40:51.000Z,0
2023-04-23T00:42:05.719Z,0
2023-04-23T00:43:22.060Z,0
2023-04-23T00:44:37.319Z,0
2023-04-23T00:45:53.609Z,0
2023-04-23T00:47:09.954Z,0
2023-04-23T00:48:26.194Z,0
2023-04-23T00:49:42.494Z,0
2023-04-23T00:50:58.779Z,0
2023-04-23T00:52:15.084Z,0
2023-04-23T00:53:33.000Z,0
2023-04-23T00:54:47.711Z,0
2023-04-23T00:56:03.951Z,0
2023-04-23T00:57:20.240Z,0
2023-04-23T00:58:36.587Z,0
2023-04-23T00:59:52.828Z,0
2023-04-23T01:01:08.135Z,0
2023-04-23T01:02:24.000Z,0
2023-04-23T01:03:40.719Z,0
2023-04-23T01:04:57.000Z,0
2023-04-23T01:06:13.314Z,0
2023-04-23T01:07:29.659Z,0
2023-04-23T01:08:45.893Z,0
2023-04-23T01:10:02.244Z,0
2023-04-23T01:11:20.000Z,0
2023-04-23T01:12:34.775Z,0
2023-04-23T01:13:52.000Z,0
2023-04-23T01:15:09.000Z,0
2023-04-23T01:16:23.661Z,0
2023-04-23T01:17:38.963Z,0
2023-04-23T01:18:55.309Z,0
2023-04-23T01:20:11.597Z,0
2023-04-23T01:21:27.888Z,0
2023-04-23T01:22:45.000Z,0
2023-04-23T01:24:00.478Z,0
2023-04-23T01:25:16.777Z,0
2023-04-23T01:26:33.058Z,0
2023-04-23T01:27:49.310Z,0
2023-04-23T01:29:07.000Z,0
2023-04-23T01:30:21.951Z,0
2023-04-23T01:31:40.000Z,0
2023-04-23T01:32:54.476Z,0
2023-04-23T01:34:09.829Z,0
2023-04-23T01:35:26.074Z,0
2023-04-23T01:36:42.358Z,0
2023-04-23T01:37:58.652Z,0
2023-04-23T01:39:14.000Z,0
2023-04-23T01:40:31.240Z,0
2023-04-23T01:41:47.528Z,0
2023-04-23T01:43:03.831Z,0
2023-04-23T01:44:21.000Z,0
2023-04-23T01:45:36.417Z,0
2023-04-23T01:46:52.704Z,0
2023-04-23T01:48:09.050Z,0
2023-04-23T01:49:25.294Z,0
2023-04-23T01:50:40.599Z,0
2023-04-23T01:51:56.947Z,0
2023-04-23T01:53:13.184Z,0
2023-04-23T01:54:31.000Z,0
2023-04-23T01:55:45.775Z,0
2023-04-23T01:57:03.000Z,0
2023-04-23T01:58:18.352Z,0
2023-04-23T01:59:34.701Z,0
2023-04-23T02:00:50.950Z,0
2023-04-23T02:02:09.000Z,0
2023-04-23T02:03:23.592Z,0
2023-04-23T02:04:39.814Z,0
2023-04-23T02:05:56.103Z,0
2023-04-23T02:07:11.478Z,0
2023-04-23T02:08:27.771Z,0
2023-04-23T02:09:44.000Z,0
2023-04-23T02:11:00.305Z,0
2023-04-23T02:12:16.583Z,0
2023-04-23T02:13:32.877Z,0
2023-04-23T02:14:51.000Z,0
2023-04-23T02:16:05.474Z,0
2023-04-23T02:17:23.000Z,0
2023-04-23T02:18:38.061Z,0
2023-04-23T02:19:54.348Z,0
2023-04-23T02:21:10.641Z,0
2023-04-23T02:22:28.000Z,0
2023-04-23T02:23:42.249Z,0
2023-04-23T02:24:58.546Z,0
2023-04-23T02:26:14.826Z,0
2023-04-23T02:27:31.124Z,0
2023-04-23T02:28:47.423Z,0
2023-04-23T02:30:03.711Z,0
2023-04-23T02:31:20.007Z,0
2023-04-23T02:32:36.292Z,0
2023-04-23T02:33:52.000Z,0
2023-04-23T02:35:08.873Z,0
2023-04-23T02:36:25.168Z,0
2023-04-23T02:37:41.459Z,0
2023-04-23T02:38:57.751Z,0
2023-04-23T02:40:13.067Z,0
2023-04-23T02:41:29.355Z,0
2023-04-23T02:42:45.647Z,0
2023-04-23T02:44:01.948Z,0
2023-04-23T02:45:18.000Z,0
2023-04-23T02:46:34.531Z,0
2023-04-23T02:47:50.819Z,0
2023-04-23T02:49:08.000Z,0
2023-04-23T02:50:23.413Z,0
2023-04-23T02:51:39.694Z,0
2023-04-23T02:52:55.993Z,0
2023-04-23T02:54:12.286Z,0
2023-04-23T02:55:28.575Z,0
2023-04-23T02:56:43.895Z,0
2023-04-23T02:58:00.173Z,0
2023-04-23T02:59:16.470Z,0
2023-04-23T03:00:32.757Z,0
2023-04-23T03:01:49.054Z,0
2023-04-23T03:03:05.345Z,0
2023-04-23T03:04:21.643Z,0
2023-04-23T03:05:37.000Z,0
2023-04-23T03:06:54.230Z,0
2023-04-23T03:08:10.520Z,0
2023-04-23T03:09:26.810Z,0
2023-04-23T03:10:44.000Z,0
2023-04-23T03:11:59.403Z,0
2023-04-23T03:13:16.000Z,0
2023-04-23T03:14:31.002Z,0
2023-04-23T03:15:47.287Z,0
2023-04-23T03:17:03.589Z,0
2023-04-23T03:18:19.868Z,0
2023-04-23T03:19:36.169Z,0
2023-04-23T03:20:52.462Z,0
2023-04-23T03:22:08.000Z,0
2023-04-23T03:23:25.037Z,0
2023-04-23T03:24:41.331Z,0
2023-04-23T03:25:59.000Z,0
2023-04-23T03:27:13.928Z,0
2023-04-23T03:28:30.211Z,0
2023-04-23T03:29:45.000Z,0
2023-04-23T03:31:03.000Z,0
2023-04-23T03:32:18.109Z,0
2023-04-23T03:33:34.412Z,0
2023-04-23T03:34:50.699Z,0
2023-04-23T03:36:08.000Z,1
2023-04-23T03:37:23.223Z,0
2023-04-23T03:38:41.000Z,0
2023-04-23T03:39:55.000Z,0
2023-04-23T03:41:12.070Z,1
2023-04-23T03:42:28.292Z,1
2023-04-23T03:43:46.000Z,1
2023-04-23T03:45:00.843Z,0
2023-04-23T03:46:16.138Z,0
2023-04-23T03:47:32.400Z,2
2023-04-23T03:48:48.622Z,1
2023-04-23T03:50:04.000Z,1
2023-04-23T03:51:23.000Z,0
2023-04-23T03:52:37.000Z,0
2023-04-23T03:53:53.756Z,0
2023-04-23T03:55:10.001Z,7
2023-04-23T03:56:26.245Z,7
2023-04-23T03:57:42.483Z,3
2023-04-23T03:58:58.000Z,3
2023-04-23T04:00:15.000Z,3
2023-04-23T04:01:31.204Z,3
2023-04-23T04:02:46.455Z,5
2023-04-23T04:04:04.000Z,5
2023-04-23T04:05:18.945Z,5
2023-04-23T04:06:35.169Z,5
2023-04-23T04:07:51.407Z,4
2023-04-23T04:09:07.648Z,2
2023-04-23T04:10:25.000Z,1
2023-04-23T04:11:40.127Z,2
2023-04-23T04:12:56.000Z,2
2023-04-23T04:14:14.000Z,4
2023-04-23T04:15:28.858Z,5
2023-04-23T04:16:45.081Z,4
2023-04-23T04:18:01.319Z,4
2023-04-23T04:19:16.000Z,5
2023-04-23T04:20:32.820Z,9
2023-04-23T04:21:50.000Z,12
2023-04-23T04:23:05.287Z,10
2023-04-23T04:24:21.523Z,8
2023-04-23T04:25:37.770Z,10
2023-04-23T04:26:54.021Z,11
2023-04-23T04:28:10.254Z,10
2023-04-23T04:29:28.000Z,15
2023-04-23T04:30:42.727Z,20
2023-04-23T04:31:58.964Z,19
2023-04-23T04:33:15.000Z,18
2023-04-23T04:34:31.446Z,18
2023-04-23T04:35:46.704Z,21
2023-04-23T04:37:02.929Z,24
2023-04-23T04:38:19.000Z,19
2023-04-23T04:39:35.418Z,23
2023-04-23T04:40:51.651Z,25
2023-04-23T04:42:09.000Z,25
2023-04-23T04:43:23.153Z,25
2023-04-23T04:44:39.387Z,26
2023-04-23T04:45:55.637Z,28
2023-04-23T04:47:11.869Z,34
2023-04-23T04:48:28.105Z,33
2023-04-23T04:49:44.358Z,30
2023-04-23T04:51:00.585Z,28
2023-04-23T04:52:16.827Z,26
2023-04-23T04:53:33.062Z,26
2023-04-23T04:54:49.298Z,26
2023-04-23T04:56:07.000Z,26
2023-04-23T04:57:21.778Z,24
2023-04-23T04:58:38.000Z,23
2023-04-23T04:59:53.270Z,27
2023-04-23T05:01:09.510Z,28
2023-04-23T05:02:27.000Z,26
2023-04-23T05:03:41.983Z,31
2023-04-23T05:04:58.229Z,29
2023-04-23T05:06:16.000Z,31
2023-04-23T05:07:30.717Z,35
2023-04-23T05:08:46.938Z,41
2023-04-23T05:10:03.185Z,48
2023-04-23T05:11:19.426Z,53
2023-04-23T05:12:37.000Z,58
2023-04-23T05:13:51.905Z,63
2023-04-23T05:15:10.000Z,66
2023-04-23T05:16:23.400Z,72
2023-04-23T05:17:41.000Z,77
2023-04-23T05:18:55.858Z,79
2023-04-23T05:20:12.115Z,86
2023-04-23T05:21:28.345Z,88
2023-04-23T05:22:44.588Z,90
2023-04-23T05:24:00.814Z,89
2023-04-23T05:25:17.065Z,89
2023-04-23T05:26:33.299Z,88
2023-04-23T05:27:49.528Z,89
2023-04-23T05:29:05.000Z,85
2023-04-23T05:30:22.029Z,74
2023-04-23T05:31:38.251Z,64
2023-04-23T05:32:55.000Z,63
2023-04-23T05:34:09.745Z,55
2023-04-23T05:35:25.986Z,54
2023-04-23T05:36:42.213Z,53
2023-04-23T05:37:58.455Z,53
2023-04-23T05:39:14.703Z,50
2023-04-23T05:40:30.942Z,49
2023-04-23T05:41:47.171Z,56
2023-04-23T05:43:03.419Z,58
2023-04-23T05:44:19.654Z,57
2023-04-23T05:45:37.000Z,56
2023-04-23T05:46:52.133Z,56
2023-04-23T05:48:08.377Z,55
2023-04-23T05:49:23.627Z,59
2023-04-23T05:50:39.000Z,61
2023-04-23T05:51:56.102Z,74
2023-04-23T05:53:12.351Z,83
2023-04-23T05:54:28.573Z,93
2023-04-23T05:55:44.824Z,109
2023-04-23T05:57:01.064Z,131
2023-04-23T05:58:17.000Z,164
2023-04-23T05:59:33.529Z,184
2023-04-23T06:00:49.780Z,182
2023-04-23T06:02:06.008Z,192
2023-04-23T06:03:22.248Z,216
2023-04-23T06:04:38.492Z,245
2023-04-23T06:05:53.742Z,262
2023-04-23T06:07:09.977Z,282
2023-04-23T06:08:28.000Z,318
2023-04-23T06:09:42.466Z,334
2023-04-23T06:11:00.000Z,323
2023-04-23T06:12:14.940Z,303
2023-04-23T06:13:31.186Z,280
2023-04-23T06:14:47.427Z,273
2023-04-23T06:16:03.656Z,311
2023-04-23T06:17:19.889Z,354
2023-04-23T06:18:36.138Z,395
2023-04-23T06:19:52.379Z,415
2023-04-23T06:21:08.611Z,427
2023-04-23T06:22:23.867Z,433
2023-04-23T06:23:42.000Z,441
2023-04-23T06:24:56.343Z,465
2023-04-23T06:26:12.583Z,504
2023-04-23T06:27:28.836Z,537
2023-04-23T06:28:45.077Z,569
2023-04-23T06:30:01.303Z,624
2023-04-23T06:31:17.558Z,649
2023-04-23T06:32:33.780Z,670
2023-04-23T06:33:50.028Z,663
2023-04-23T06:35:06.258Z,655
2023-04-23T06:36:24.000Z,635
2023-04-23T06:37:38.733Z,653
2023-04-23T06:38:53.995Z,605
2023-04-23T06:40:10.230Z,612
2023-04-23T06:41:26.458Z,597
2023-04-23T06:42:42.717Z,588
2023-04-23T06:43:58.938Z,590
2023-04-23T06:45:15.000Z,585
2023-04-23T06:46:31.430Z,567
2023-04-23T06:47:47.659Z,552
2023-04-23T06:49:03.888Z,525
2023-04-23T06:50:20.130Z,484
2023-04-23T06:51:36.391Z,438
2023-04-23T06:52:52.608Z,409
2023-04-23T06:54:08.869Z,411
2023-04-23T06:55:24.099Z,466
2023-04-23T06:56:40.351Z,553
2023-04-23T06:57:56.586Z,588
2023-04-23T06:59:12.834Z,627
2023-04-23T07:00:29.075Z,652
2023-04-23T07:01:45.306Z,654
2023-04-23T07:03:01.000Z,659
2023-04-23T07:04:17.783Z,709
2023-04-23T07:05:34.018Z,743
2023-04-23T07:06:50.262Z,712
2023-04-23T07:08:06.498Z,728
2023-04-23T07:09:24.000Z,775
2023-04-23T07:10:38.970Z,814
2023-04-23T07:11:56.000Z,833
2023-04-23T07:13:10.459Z,783
2023-04-23T07:14:28.000Z,748
2023-04-23T07:15:42.941Z,763
2023-04-23T07:16:59.178Z,727
2023-04-23T07:18:15.440Z,730
2023-04-23T07:19:31.675Z,702
2023-04-23T07:20:47.917Z,654
2023-04-23T07:22:04.139Z,559
2023-04-23T07:23:20.377Z,517
2023-04-23T07:24:38.000Z,534
2023-04-23T07:25:52.851Z,515
2023-04-23T07:27:09.095Z,518
2023-04-23T07:28:24.358Z,461
2023-04-23T07:29:40.606Z,351
2023-04-23T07:30:56.815Z,470
2023-04-23T07:32:13.070Z,748
2023-04-23T07:33:29.306Z,908
2023-04-23T07:34:45.528Z,1085
2023-04-23T07:36:01.768Z,1155
2023-04-23T07:37:20.000Z,958
2023-04-23T07:38:34.257Z,693
2023-04-23T07:39:52.000Z,608
2023-04-23T07:41:06.729Z,695
2023-04-23T07:42:22.983Z,592
2023-04-23T07:43:39.214Z,440
2023-04-23T07:44:54.456Z,438
2023-04-23T07:46:10.694Z,470
2023-04-23T07:47:26.937Z,488
2023-04-23T07:48:43.196Z,455
2023-04-23T07:49:59.409Z,541
2023-04-23T07:51:15.000Z,649
2023-04-23T07:52:33.000Z,549
2023-04-23T07:53:48.135Z,452
2023-04-23T07:55:04.380Z,508
2023-04-23T07:56:20.604Z,483
2023-04-23T07:57:38.000Z,425
2023-04-23T07:58:53.095Z,437
2023-04-23T08:00:09.344Z,372
2023-04-23T08:01:24.587Z,338
2023-04-23T08:02:40.813Z,314
2023-04-23T08:03:57.059Z,202
2023-04-23T08:05:13.295Z,252
2023-04-23T08:06:29.537Z,444
2023-04-23T08:07:45.770Z,485
2023-04-23T08:09:02.017Z,580
2023-04-23T08:10:18.241Z,461
2023-04-23T08:11:34.483Z,450
2023-04-23T08:12:50.721Z,413
2023-04-23T08:14:06.973Z,381
2023-04-23T08:15:23.197Z,405
2023-04-23T08:16:41.000Z,464
2023-04-23T08:17:54.705Z,445
2023-04-23T08:19:10.941Z,334
2023-04-23T08:20:27.169Z,335
2023-04-23T08:21:43.409Z,407
2023-04-23T08:22:59.650Z,466
2023-04-23T08:24:15.892Z,499
2023-04-23T08:25:32.122Z,566
2023-04-23T08:26:48.378Z,769
2023-04-23T08:28:06.000Z,964
2023-04-23T08:29:20.853Z,920
2023-04-23T08:30:37.082Z,772
2023-04-23T08:31:53.323Z,837
2023-04-23T08:33:09.554Z,799
2023-04-23T08:34:24.813Z,592
2023-04-23T08:35:41.063Z,559
2023-04-23T08:36:57.299Z,589
2023-04-23T08:38:13.558Z,535
2023-04-23T08:39:29.778Z,609
2023-04-23T08:40:46.010Z,616
2023-04-23T08:42:02.246Z,568
2023-04-23T08:43:18.480Z,458
2023-04-23T08:44:36.000Z,428
2023-04-23T08:45:50.967Z,428
2023-04-23T08:47:07.195Z,449
2023-04-23T08:48:23.464Z,465
2023-04-23T08:49:39.679Z,478
2023-04-23T08:50:54.931Z,481
2023-04-23T08:52:11.181Z,461
2023-04-23T08:53:27.413Z,480
2023-04-23T08:54:43.644Z,517
2023-04-23T08:56:01.000Z,549
2023-04-23T08:57:16.135Z,564
2023-04-23T08:58:31.384Z,556
2023-04-23T08:59:47.634Z,570
2023-04-23T09:01:03.871Z,641
2023-04-23T09:02:20.107Z,750
2023-04-23T09:03:36.352Z,825
2023-04-23T09:04:52.581Z,890
2023-04-23T09:06:08.826Z,893
2023-04-23T09:07:25.072Z,991
2023-04-23T09:08:41.304Z,1050
2023-04-23T09:09:57.543Z,1109
2023-04-23T09:11:13.780Z,1192
2023-04-23T09:12:30.018Z,1167
2023-04-23T09:13:46.268Z,1162
2023-04-23T09:15:01.517Z,1100
2023-04-23T09:16:17.740Z,1197
2023-04-23T09:17:33.999Z,1252
2023-04-23T09:18:50.217Z,1352
2023-04-23T09:20:06.000Z,1515
2023-04-23T09:21:22.694Z,1567
2023-04-23T09:22:38.933Z,1492
2023-04-23T09:23:55.170Z,1439
2023-04-23T09:25:11.440Z,1254
2023-04-23T09:26:27.658Z,1287
2023-04-23T09:27:43.897Z,1289
2023-04-23T09:29:00.155Z,1253
2023-04-23T09:30:16.367Z,1329
2023-04-23T09:31:31.627Z,1348
2023-04-23T09:32:47.863Z,1327
2023-04-23T09:34:04.115Z,1319
2023-04-23T09:35:20.340Z,1269
2023-04-23T09:36:36.574Z,1321
2023-04-23T09:37:52.847Z,1343
2023-04-23T09:39:09.082Z,1444
2023-04-23T09:40:25.325Z,1618
2023-04-23T09:41:41.539Z,1729
2023-04-23T09:42:57.771Z,1805
2023-04-23T09:44:14.037Z,1739
2023-04-23T09:45:30.281Z,1681
2023-04-23T09:46:46.490Z,1591
2023-04-23T09:48:01.743Z,1971
2023-04-23T09:49:18.013Z,1727
2023-04-23T09:50:34.246Z,1687
2023-04-23T09:51:50.460Z,1689
2023-04-23T09:53:06.000Z,1883
2023-04-23T09:54:22.935Z,2104
2023-04-23T09:55:39.174Z,1210
2023-04-23T09:56:55.422Z,1515
2023-04-23T09:58:11.651Z,1596
2023-04-23T09:59:27.896Z,1676
2023-04-23T10:00:44.166Z,1133
2023-04-23T10:02:00.399Z,2676
2023-04-23T10:03:16.638Z,1792
2023-04-23T10:04:31.890Z,1762
2023-04-23T10:05:48.135Z,1956
2023-04-23T10:07:04.378Z,1963
2023-04-23T10:08:20.000Z,1852
2023-04-23T10:09:36.000Z,1878
2023-04-23T10:10:53.088Z,1882
2023-04-23T10:12:09.300Z,1843
2023-04-23T10:13:25.541Z,1896
2023-04-23T10:14:41.783Z,1815
2023-04-23T10:15:58.011Z,1696
2023-04-23T10:17:14.262Z,1845
2023-04-23T10:18:30.505Z,2723
2023-04-23T10:19:46.728Z,2175
2023-04-23T10:21:01.996Z,3012
2023-04-23T10:22:18.233Z,3272
2023-04-23T10:23:34.503Z,843
2023-04-23T10:24:50.703Z,3925
2023-04-23T10:26:06.942Z,1754
2023-04-23T10:27:23.213Z,1407
2023-04-23T10:28:39.424Z,802
2023-04-23T10:29:55.696Z,3781
2023-04-23T10:31:11.910Z,1358
2023-04-23T10:32:28.174Z,1436
2023-04-23T10:33:44.377Z,1537
2023-04-23T10:35:00.662Z,2695
2023-04-23T10:36:16.000Z,2367
2023-04-23T10:37:32.110Z,1985
2023-04-23T10:38:48.388Z,3508
2023-04-23T10:40:04.594Z,4722
2023-04-23T10:41:20.867Z,2303
2023-04-23T10:42:37.101Z,4414
2023-04-23T10:43:53.350Z,1617
2023-04-23T10:45:09.591Z,836
2023-04-23T10:46:25.795Z,3896
2023-04-23T10:47:42.067Z,4192
2023-04-23T10:48:58.270Z,757
2023-04-23T10:50:14.000Z,2215
2023-04-23T10:51:30.748Z,3560
2023-04-23T10:52:46.984Z,3171
2023-04-23T10:54:02.277Z,3791
2023-04-23T10:55:18.000Z,3403
2023-04-23T10:56:34.713Z,4228
2023-04-23T10:57:50.992Z,1724
2023-04-23T10:59:07.195Z,4489
2023-04-23T11:00:23.434Z,1751
2023-04-23T11:01:39.720Z,3373
2023-04-23T11:02:55.000Z,3652
2023-04-23T11:04:12.174Z,3445
2023-04-23T11:05:28.000Z,3609
2023-04-23T11:06:44.653Z,3459
2023-04-23T11:08:00.897Z,3883
2023-04-23T11:09:17.144Z,3453
2023-04-23T11:10:32.000Z,3648
2023-04-23T11:11:48.643Z,3672
2023-04-23T11:13:04.855Z,3906
2023-04-23T11:14:21.106Z,4109
2023-04-23T11:15:37.364Z,3960
2023-04-23T11:16:53.603Z,4112
2023-04-23T11:18:09.814Z,4371
2023-04-23T11:19:26.094Z,4135
2023-04-23T11:20:42.302Z,4339
2023-04-23T11:21:58.539Z,4459
2023-04-23T11:23:14.793Z,4327
2023-04-23T11:24:31.050Z,4629
2023-04-23T11:25:47.280Z,4800
2023-04-23T11:27:02.535Z,4450
2023-04-23T11:28:18.750Z,4732
2023-04-23T11:29:35.002Z,4449
2023-04-23T11:30:51.235Z,4869
2023-04-23T11:32:07.464Z,4822
2023-04-23T11:33:23.742Z,4824
2023-04-23T11:34:39.980Z,4792
2023-04-23T11:35:56.000Z,6323
2023-04-23T11:37:12.000Z,1037
2023-04-23T11:38:28.682Z,8323
2023-04-23T11:39:44.946Z,1655
2023-04-23T11:41:01.154Z,5463
2023-04-23T11:42:17.412Z,7517
2023-04-23T11:43:32.650Z,1339
2023-04-23T11:44:48.909Z,5361
2023-04-23T11:46:07.000Z,5566
2023-04-23T11:47:21.369Z,5538
2023-04-23T11:48:37.606Z,5394
2023-04-23T11:49:53.854Z,5312
2023-04-23T11:51:12.000Z,5648
2023-04-23T11:52:26.322Z,5775
2023-04-23T11:53:42.568Z,6053
2023-04-23T11:54:58.810Z,5970
2023-04-23T11:56:15.080Z,7886
2023-04-23T11:57:31.292Z,3451
2023-04-23T11:58:47.000Z,1725
2023-04-23T12:00:02.793Z,621
2023-04-23T12:01:19.029Z,3548
2023-04-23T12:02:35.268Z,669
2023-04-23T12:03:53.000Z,1438
2023-04-23T12:05:07.771Z,7046
2023-04-23T12:06:23.980Z,2423
2023-04-23T12:07:40.220Z,1213
2023-04-23T12:08:56.473Z,6584
2023-04-23T12:10:12.000Z,6272
2023-04-23T12:11:31.000Z,6514
2023-04-23T12:12:45.000Z,6454
2023-04-23T12:14:01.448Z,6565
2023-04-23T12:15:17.674Z,6488
2023-04-23T12:16:32.933Z,6647
2023-04-23T12:17:49.187Z,6648
2023-04-23T12:19:05.418Z,6502
2023-04-23T12:20:21.638Z,6803
2023-04-23T12:21:37.916Z,6661
2023-04-23T12:22:54.135Z,6685
2023-04-23T12:24:12.000Z,9997
2023-04-23T12:25:26.637Z,1981
2023-04-23T12:26:42.845Z,6910
2023-04-23T12:27:59.092Z,7889
2023-04-23T12:29:15.338Z,1163
2023-04-23T12:30:31.598Z,6972
2023-04-23T12:31:49.000Z,6330
2023-04-23T12:33:03.059Z,9668
2023-04-23T12:34:19.336Z,2998
2023-04-23T12:35:35.557Z,7633
2023-04-23T12:36:51.781Z,6519
2023-04-23T12:38:08.039Z,7159
2023-04-23T12:39:24.295Z,7225
2023-04-23T12:40:40.531Z,7017
2023-04-23T12:41:58.000Z,6826
2023-04-23T12:43:13.013Z,6775
2023-04-23T12:44:31.000Z,6799
2023-04-23T12:45:45.501Z,6703
2023-04-23T12:47:01.702Z,6813
2023-04-23T12:48:17.945Z,6782
2023-04-23T12:49:35.000Z,6891
2023-04-23T12:50:49.475Z,6756
2023-04-23T12:52:05.685Z,6938
2023-04-23T12:53:21.925Z,6695
2023-04-23T12:54:38.161Z,6837
2023-04-23T12:55:54.448Z,6946
2023-04-23T12:57:10.647Z,6913
2023-04-23T12:58:26.913Z,7172
2023-04-23T12:59:43.127Z,6996
2023-04-23T13:00:59.375Z,6967
2023-04-23T13:02:15.635Z,6920
2023-04-23T13:03:31.879Z,6982
2023-04-23T13:04:48.086Z,7044
2023-04-23T13:06:03.373Z,7049
2023-04-23T13:07:19.618Z,7100
2023-04-23T13:08:35.822Z,7191
2023-04-23T13:09:52.100Z,7531
2023-04-23T13:11:08.316Z,7168
2023-04-23T13:12:24.576Z,7109
2023-04-23T13:13:39.846Z,6932
2023-04-23T13:14:56.053Z,7152
2023-04-23T13:16:12.293Z,7216
2023-04-23T13:17:28.555Z,7121
2023-04-23T13:18:44.772Z,7136
2023-04-23T13:20:01.035Z,7177
2023-04-23T13:21:17.280Z,7138
2023-04-23T13:22:33.487Z,7104
2023-04-23T13:23:49.726Z,7081
2023-04-23T13:25:06.000Z,7163
2023-04-23T13:26:22.242Z,6941
2023-04-23T13:27:38.455Z,7056
2023-04-23T13:28:54.688Z,6930
2023-04-23T13:30:11.047Z,7083
2023-04-23T13:31:27.293Z,7166
2023-04-23T13:32:45.000Z,7119
2023-04-23T13:33:59.797Z,7110
2023-04-23T13:35:16.008Z,7035
2023-04-23T13:36:32.285Z,6991
2023-04-23T13:37:48.484Z,6973
2023-04-23T13:39:04.758Z,6989
2023-04-23T13:40:23.000Z,7005
2023-04-23T13:41:37.210Z,7028
2023-04-23T13:42:53.480Z,6982
2023-04-23T13:44:09.687Z,7097
2023-04-23T13:45:25.930Z,7130
2023-04-23T13:46:41.198Z,6935
2023-04-23T13:47:57.430Z,11005
2023-04-23T13:49:13.000Z,2241
2023-04-23T13:50:29.908Z,7320
2023-04-23T13:51:46.140Z,7138
2023-04-23T13:53:04.000Z,7294
2023-04-23T13:54:18.642Z,7373
2023-04-23T13:55:34.861Z,8450
2023-04-23T13:56:51.117Z,2399
2023-04-23T13:58:07.352Z,1735
2023-04-23T13:59:23.576Z,903
2023-04-23T14:00:39.819Z,2204
2023-04-23T14:01:56.075Z,7537
2023-04-23T14:03:12.447Z,8004
2023-04-23T14:04:28.661Z,7507
2023-04-23T14:05:47.000Z,7681
2023-04-23T14:07:01.134Z,7702
2023-04-23T14:08:17.394Z,7797
2023-04-23T14:09:33.618Z,7701
2023-04-23T14:10:52.000Z,7630
2023-04-23T14:12:06.097Z,7628
2023-04-23T14:13:22.333Z,7825
2023-04-23T14:14:38.572Z,7270
2023-04-23T14:15:54.827Z,7672
2023-04-23T14:17:11.069Z,7586
2023-04-23T14:18:27.295Z,7711
2023-04-23T14:19:44.000Z,8310
2023-04-23T14:20:58.774Z,6993
2023-04-23T14:22:15.021Z,7588
2023-04-23T14:23:31.252Z,8008
2023-04-23T14:24:47.515Z,7463
2023-04-23T14:26:03.730Z,7702
2023-04-23T14:27:19.976Z,7117
2023-04-23T14:28:36.214Z,7337
2023-04-23T14:29:52.471Z,7834
2023-04-23T14:31:08.711Z,7878
2023-04-23T14:32:24.941Z,7711
2023-04-23T14:33:41.191Z,7613
2023-04-23T14:34:57.433Z,7453
2023-04-23T14:36:14.000Z,6156
2023-04-23T14:37:28.916Z,7623
2023-04-23T14:38:47.000Z,6808
2023-04-23T14:40:01.371Z,6868
2023-04-23T14:41:17.619Z,8256
2023-04-23T14:42:33.870Z,5021
2023-04-23T14:43:50.086Z,5668
2023-04-23T14:45:06.348Z,6607
2023-04-23T14:46:22.573Z,7636
2023-04-23T14:47:38.826Z,6828
2023-04-23T14:48:55.044Z,7925
2023-04-23T14:50:11.313Z,8275
2023-04-23T14:51:29.000Z,8417
2023-04-23T14:52:42.797Z,8179
2023-04-23T14:53:59.031Z,8029
2023-04-23T14:55:15.247Z,8301
2023-04-23T14:56:33.000Z,10070
2023-04-23T14:57:47.748Z,6163
2023-04-23T14:59:03.983Z,8275
2023-04-23T15:00:20.228Z,11369
2023-04-23T15:01:36.435Z,3480
2023-04-23T15:02:52.689Z,2121
2023-04-23T15:04:11.000Z,8332
2023-04-23T15:05:25.158Z,5606
2023-04-23T15:06:41.397Z,6108
2023-04-23T15:07:57.660Z,6767
2023-04-23T15:09:16.000Z,5604
2023-04-23T15:10:30.236Z,9053
2023-04-23T15:11:46.497Z,3044
2023-04-23T15:13:02.712Z,3805
2023-04-23T15:14:18.951Z,5003
2023-04-23T15:15:35.186Z,5726
2023-04-23T15:16:51.430Z,3303
2023-04-23T15:18:07.663Z,1803
2023-04-23T15:19:23.927Z,2586
2023-04-23T15:20:40.147Z,1207
2023-04-23T15:21:56.399Z,3546
2023-04-23T15:23:12.623Z,1557
2023-04-23T15:24:31.000Z,6491
2023-04-23T15:25:44.134Z,2950
2023-04-23T15:27:00.357Z,4420
2023-04-23T15:28:16.611Z,7357
2023-04-23T15:29:35.000Z,3037
2023-04-23T15:30:49.086Z,2565
2023-04-23T15:32:05.326Z,1789
2023-04-23T15:33:21.551Z,1674
2023-04-23T15:34:37.789Z,6066
2023-04-23T15:35:54.029Z,5567
2023-04-23T15:37:10.271Z,7354
2023-04-23T15:38:26.511Z,2242
2023-04-23T15:39:42.751Z,1169
2023-04-23T15:40:58.984Z,5462
2023-04-23T15:42:14.249Z,3489
2023-04-23T15:43:30.474Z,1783
2023-04-23T15:44:46.726Z,2449
2023-04-23T15:46:02.962Z,1629
2023-04-23T15:47:19.194Z,791
2023-04-23T15:48:35.430Z,3243
2023-04-23T15:49:51.669Z,1839
2023-04-23T15:51:07.000Z,1547
2023-04-23T15:52:26.000Z,2022
2023-04-23T15:53:40.406Z,1356
2023-04-23T15:54:56.644Z,852
2023-04-23T15:56:12.873Z,1407
2023-04-23T15:57:29.102Z,3319
2023-04-23T15:58:44.371Z,9550
2023-04-23T16:00:00.597Z,6659
2023-04-23T16:01:16.847Z,7344
2023-04-23T16:02:33.077Z,5420
2023-04-23T16:03:49.331Z,5630
2023-04-23T16:05:07.000Z,3497
2023-04-23T16:06:21.801Z,1088
2023-04-23T16:07:38.041Z,1288
2023-04-23T16:08:54.290Z,1146
2023-04-23T16:10:10.521Z,1160
2023-04-23T16:11:26.759Z,1316
2023-04-23T16:12:45.000Z,2412
2023-04-23T16:13:59.246Z,2576
2023-04-23T16:15:15.612Z,4771
2023-04-23T16:16:31.841Z,1397
2023-04-23T16:17:48.091Z,1042
2023-04-23T16:19:04.324Z,1605
2023-04-23T16:20:20.552Z,1875
2023-04-23T16:21:38.000Z,3163
2023-04-23T16:22:53.030Z,6251
2023-04-23T16:24:09.277Z,7104
2023-04-23T16:25:25.513Z,4093
2023-04-23T16:26:41.746Z,4511
2023-04-23T16:28:00.000Z,7205
2023-04-23T16:29:14.228Z,6562
2023-04-23T16:30:30.484Z,6632
2023-04-23T16:31:45.720Z,4078
2023-04-23T16:33:04.000Z,1143
2023-04-23T16:34:18.000Z,1893
2023-04-23T16:35:34.445Z,4327
2023-04-23T16:36:50.674Z,5439
2023-04-23T16:38:06.921Z,5890
2023-04-23T16:39:23.152Z,5282
2023-04-23T16:40:39.403Z,5429
2023-04-23T16:41:55.000Z,5189
2023-04-23T16:43:11.867Z,5268
2023-04-23T16:44:28.107Z,5209
2023-04-23T16:45:44.357Z,3820
2023-04-23T16:47:00.590Z,4884
2023-04-23T16:48:15.838Z,4800
2023-04-23T16:49:32.087Z,4663
2023-04-23T16:50:48.326Z,4849
2023-04-23T16:52:04.554Z,4843
2023-04-23T16:53:20.796Z,4940
2023-04-23T16:54:37.037Z,4315
2023-04-23T16:55:53.267Z,4413
2023-04-23T16:57:09.516Z,4825
2023-04-23T16:58:27.000Z,4221
2023-04-23T16:59:41.998Z,3824
2023-04-23T17:00:58.222Z,3613
2023-04-23T17:02:14.476Z,2620
2023-04-23T17:03:30.706Z,1964
2023-04-23T17:04:45.957Z,3098
2023-04-23T17:06:02.190Z,3735
2023-04-23T17:07:18.429Z,3967
2023-04-23T17:08:36.000Z,5561
2023-04-23T17:09:50.919Z,2712
2023-04-23T17:11:09.000Z,2269
2023-04-23T17:12:23.387Z,1387
2023-04-23T17:13:39.628Z,3882
2023-04-23T17:14:55.878Z,2297
2023-04-23T17:16:12.104Z,757
2023-04-23T17:17:28.000Z,1940
2023-04-23T17:18:44.584Z,942
2023-04-23T17:20:00.820Z,2388
2023-04-23T17:21:18.000Z,1402
2023-04-23T17:22:32.320Z,1401
2023-04-23T17:23:48.545Z,1263
2023-04-23T17:25:04.785Z,1242
2023-04-23T17:26:21.024Z,1112
2023-04-23T17:27:37.275Z,1384
2023-04-23T17:28:52.532Z,955
2023-04-23T17:30:08.766Z,765
2023-04-23T17:31:25.012Z,934
2023-04-23T17:32:41.244Z,804